Time;durP1;ratioP1;P1;durP2;ratioP2;P2;SDS_P1;SDS_P2;PMS_P1;PMS_P2;Temp;Humidity;BMP_temperature;BMP_pressure;BME280_temperature;BME280_humidity;BME280_pressure;Samples;Min_cycle;Max_cycle;Signal;HPM_P1;HPM_P2
2021/12/25 00:01:45;;;;;;;;;34.50;31.00;;;;;12.24;72.96;99828.56;5075485;28;44898;-68
2021/12/25 00:04:10;;;;;;;;;38.00;33.25;;;;;12.46;73.02;99858.13;5093264;28;45006;-67
2021/12/25 00:06:36;;;;;;;;;34.25;31.50;;;;;12.52;72.56;99880.50;5091576;28;45183;-68
2021/12/25 00:09:04;;;;;;;;;41.25;34.00;;;;;12.46;72.78;99866.16;5094357;28;45141;-67
2021/12/25 00:11:29;;;;;;;;;32.25;29.25;;;;;12.49;72.99;99875.09;5093141;28;45058;-67
2021/12/25 00:13:55;;;;;;;;;40.75;34.25;;;;;12.49;72.48;99868.88;5085921;28;45143;-68
2021/12/25 00:16:20;;;;;;;;;39.25;33.00;;;;;12.45;73.27;99864.38;5072326;28;45283;-71
2021/12/25 00:18:45;;;;;;;;;35.75;32.50;;;;;12.48;73.10;99859.03;5072224;28;45719;-68
2021/12/25 00:21:11;;;;;;;;;39.00;35.00;;;;;12.49;73.36;99864.41;5071823;28;45095;-67
2021/12/25 00:23:38;;;;;;;;;38.00;33.00;;;;;12.51;73.27;99861.72;5071049;28;45174;-66
2021/12/25 00:26:26;;;;;;;;;36.50;29.75;;;;;12.36;73.28;99825.06;5079486;28;45394;-68
2021/12/25 00:28:57;;;;;;;;;41.25;31.75;;;;;12.52;72.85;99844.72;5090757;28;45094;-69
2021/12/25 00:31:31;;;;;;;;;34.25;31.50;;;;;12.52;73.04;99850.09;5091256;28;45122;-68
2021/12/25 00:34:00;;;;;;;;;36.25;31.25;;;;;12.52;72.41;99847.41;5091461;28;44938;-67
2021/12/25 00:36:26;;;;;;;;;36.75;33.00;;;;;12.37;72.37;99810.75;5092028;28;45162;-67
2021/12/25 00:38:53;;;;;;;;;40.50;35.50;;;;;12.37;73.13;99800.03;5090386;28;46037;-69
2021/12/25 00:41:22;;;;;;;;;35.25;32.50;;;;;12.52;72.16;99829.59;5091701;27;45341;-68
2021/12/25 00:43:48;;;;;;;;;39.50;33.00;;;;;12.48;72.15;99819.72;5093765;28;44906;-69
2021/12/25 00:46:14;;;;;;;;;38.25;32.25;;;;;12.48;73.26;99824.19;5094013;28;44949;-68
2021/12/25 00:48:39;;;;;;;;;35.50;30.00;;;;;12.39;72.33;99800.03;5072558;28;44995;-66
2021/12/25 00:51:05;;;;;;;;;34.50;31.25;;;;;12.39;72.73;99787.56;5070520;28;45373;-69
2021/12/25 00:53:31;;;;;;;;;38.75;33.75;;;;;12.46;73.16;99815.28;5070307;28;45350;-68
2021/12/25 00:55:56;;;;;;;;;41.75;34.75;;;;;12.43;72.60;99812.56;5070910;28;44986;-69
2021/12/25 00:58:22;;;;;;;;;36.25;32.25;;;;;12.42;72.41;99826.84;5074096;28;45200;-69
2021/12/25 01:00:47;;;;;;;;;31.75;28.00;;;;;12.43;72.69;99831.31;5093653;28;45169;-67
2021/12/25 01:03:13;;;;;;;;;31.00;29.25;;;;;12.37;72.66;99817.91;5093682;28;44989;-69
2021/12/25 01:05:39;;;;;;;;;28.75;26.75;;;;;12.26;71.97;99808.03;5092577;28;45174;-68
2021/12/25 01:08:05;;;;;;;;;29.00;25.25;;;;;12.38;71.59;99835.78;5091029;28;45162;-69
2021/12/25 01:10:33;;;;;;;;;29.75;27.25;;;;;12.32;72.34;99820.56;5079344;28;44982;-69
2021/12/25 01:13:16;;;;;;;;;36.75;30.00;;;;;12.12;72.93;99794.56;5051476;28;45380;-68
2021/12/25 01:32:20;;;;;;;;;22.50;22.00;;;;;12.26;72.57;99842.84;5093914;28;45351;-68
2021/12/25 01:47:54;;;;;;;;;29.25;26.00;;;;;12.15;72.33;99849.94;5091616;28;45183;-70
2021/12/25 01:50:23;;;;;;;;;31.75;24.50;;;;;12.15;72.28;99849.94;5084261;28;45181;-67
2021/12/25 01:52:49;;;;;;;;;26.25;26.25;;;;;12.10;72.74;99838.31;5071264;28;44813;-69
2021/12/25 01:55:18;;;;;;;;;28.50;24.75;;;;;12.14;72.26;99849.06;5069136;28;45200;-69
2021/12/25 01:57:43;;;;;;;;;29.75;25.75;;;;;12.16;72.70;99849.06;5052733;28;45385;-69
2021/12/25 02:00:26;;;;;;;;;27.50;23.75;;;;;12.11;72.10;99845.44;5051641;28;46172;-67
2021/12/25 02:02:52;;;;;;;;;21.75;18.75;;;;;12.17;72.15;99853.50;5081396;27;45372;-68
2021/12/25 02:05:18;;;;;;;;;23.25;20.50;;;;;12.04;71.94;99836.47;5092024;28;45038;-69
2021/12/25 02:07:45;;;;;;;;;27.75;18.50;;;;;12.15;72.13;99858.84;5090320;28;45231;-70
2021/12/25 02:10:13;;;;;;;;;19.75;19.25;;;;;12.13;71.57;99852.59;5091477;28;45204;-69
2021/12/25 02:12:39;;;;;;;;;20.50;20.50;;;;;12.15;72.43;99864.22;5070587;28;45371;-69
2021/12/25 02:15:13;;;;;;;;;23.75;17.25;;;;;12.14;72.37;99853.50;5089974;28;45358;-66
2021/12/25 02:18:18;;;;;;;;;17.75;17.25;;;;;12.06;72.22;99850.78;5093131;27;45408;-69
2021/12/25 02:20:40;;;;;;;;;18.75;17.25;;;;;12.12;71.51;99857.94;5109956;27;45661;-72
2021/12/25 02:23:25;;;;;;;;;21.75;17.25;;;;;12.13;72.68;99857.97;5111106;27;45341;-68
2021/12/25 02:25:54;;;;;;;;;21.25;17.00;;;;;12.14;72.08;99857.09;5111247;27;44957;-70
2021/12/25 02:28:20;;;;;;;;;18.00;15.00;;;;;12.18;71.92;99849.97;5110350;27;45106;-70
2021/12/25 02:30:48;;;;;;;;;20.00;16.50;;;;;12.22;72.28;99853.53;5110319;27;45242;-70
2021/12/25 02:33:16;;;;;;;;;22.25;17.50;;;;;12.13;71.87;99849.03;5110031;27;45122;-69
2021/12/25 02:35:41;;;;;;;;;17.25;15.75;;;;;12.28;71.87;99853.59;5110031;27;45317;-67
2021/12/25 02:38:06;;;;;;;;;19.50;15.00;;;;;12.25;71.74;99838.38;5110576;27;45248;-67
2021/12/25 02:40:32;;;;;;;;;16.75;15.00;;;;;12.34;71.80;99854.50;5099846;27;45933;-68
2021/12/25 02:42:58;;;;;;;;;14.00;12.25;;;;;12.19;71.73;99832.09;5089991;28;45588;-70
2021/12/25 02:45:23;;;;;;;;;15.00;13.00;;;;;12.28;71.33;99837.50;5087082;28;45284;-70
2021/12/25 02:47:53;;;;;;;;;16.00;13.00;;;;;12.41;71.76;99846.50;5088693;28;44991;-69
2021/12/25 02:50:28;;;;;;;;;11.50;11.25;;;;;12.37;71.52;99840.22;5089321;28;45309;-67
2021/12/25 02:52:55;;;;;;;;;12.75;11.00;;;;;12.40;70.98;99847.38;5088811;28;45546;-69
2021/12/25 02:55:21;;;;;;;;;18.75;14.25;;;;;12.38;70.98;99839.34;5087903;27;44958;-68
2021/12/25 02:57:50;;;;;;;;;15.25;11.25;;;;;12.11;71.33;99802.59;5092822;28;44942;-68
2021/12/25 03:00:21;;;;;;;;;12.50;11.75;;;;;12.45;71.59;99856.34;5092346;28;45148;-69
2021/12/25 03:02:47;;;;;;;;;12.50;11.75;;;;;12.42;71.16;99842.91;5089464;28;45476;-69
2021/12/25 03:05:13;;;;;;;;;12.25;12.25;;;;;12.43;71.62;99832.22;5089964;28;45062;-70
2021/12/25 03:07:39;;;;;;;;;12.50;10.75;;;;;12.47;70.20;99839.38;5090180;28;44993;-67
2021/12/25 03:10:06;;;;;;;;;13.25;12.50;;;;;12.52;71.37;99837.63;5089001;28;45000;-69
2021/12/25 03:12:45;;;;;;;;;12.00;9.00;;;;;12.51;71.02;99841.16;5090615;28;45271;-69
2021/12/25 03:15:17;;;;;;;;;13.50;13.50;;;;;12.53;70.52;99839.38;5086037;28;45134;-68
2021/12/25 03:17:42;;;;;;;;;13.00;11.00;;;;;12.43;71.07;99818.81;5093539;28;45245;-67
2021/12/25 03:20:10;;;;;;;;;18.75;16.00;;;;;12.12;70.52;99767.78;5093814;28;45270;-67
2021/12/25 03:22:37;;;;;;;;;18.25;13.25;;;;;12.54;70.71;99835.84;5091797;28;45374;-69
2021/12/25 03:25:11;;;;;;;;;13.00;11.75;;;;;12.50;70.50;99846.53;5093033;28;45214;-69
2021/12/25 03:27:39;;;;;;;;;10.75;10.00;;;;;12.47;70.38;99839.38;5093707;28;45190;-68
2021/12/25 03:30:06;;;;;;;;;12.00;11.25;;;;;12.46;70.68;99837.59;5094882;27;45614;-70
2021/12/25 03:32:32;;;;;;;;;13.75;12.25;;;;;12.46;70.83;99840.25;5093849;28;45079;-69
2021/12/25 03:34:57;;;;;;;;;12.25;10.25;;;;;12.48;71.35;99841.16;5095487;28;45087;-69
2021/12/25 03:37:23;;;;;;;;;17.25;13.00;;;;;12.45;70.80;99843.81;5094109;28;45281;-70
2021/12/25 03:39:48;;;;;;;;;14.00;11.75;;;;;12.38;70.78;99830.41;5092942;28;45714;-69
2021/12/25 03:42:14;;;;;;;;;8.50;7.75;;;;;12.41;71.32;99847.38;5091834;28;45007;-70
2021/12/25 03:44:39;;;;;;;;;14.00;12.00;;;;;12.40;70.84;99848.28;5092148;28;45374;-68
2021/12/25 03:47:21;;;;;;;;;17.00;13.75;;;;;12.33;70.83;99844.66;5092559;28;45298;-68
2021/12/25 03:58:02;;;;;;;;;14.25;12.75;;;;;12.40;70.89;99852.75;5091551;28;45205;-69
2021/12/25 04:00:30;;;;;;;;;20.50;18.75;;;;;12.38;71.75;99855.41;5089522;28;45741;-68
2021/12/25 04:03:01;;;;;;;;;14.00;11.50;;;;;12.37;70.64;99858.06;5086761;28;45697;-70
2021/12/25 04:05:30;;;;;;;;;18.00;14.75;;;;;12.35;71.20;99858.06;5079974;27;45500;-67
2021/12/25 04:10:25;;;;;;;;;17.25;15.50;;;;;12.28;71.12;99851.78;5092793;28;45521;-70
2021/12/25 04:12:51;;;;;;;;;17.25;12.50;;;;;12.39;70.85;99867.94;5092503;28;45007;-67
2021/12/25 04:15:16;;;;;;;;;21.25;13.00;;;;;12.19;71.10;99838.34;5092241;28;45362;-70
2021/12/25 04:17:41;;;;;;;;;17.75;10.75;;;;;12.32;70.82;99856.28;5092591;28;45381;-71
2021/12/25 04:20:08;;;;;;;;;16.00;11.75;;;;;11.89;71.52;99785.50;5091954;28;46295;-70
2021/12/25 04:22:44;;;;;;;;;17.00;13.25;;;;;12.19;71.51;99835.66;5076627;28;45486;-69
2021/12/25 04:25:10;;;;;;;;;16.75;10.75;;;;;12.35;70.98;99855.38;5073703;28;45337;-69
2021/12/25 04:27:37;;;;;;;;;11.50;11.50;;;;;12.22;71.30;99838.34;5075267;28;45370;-68
2021/12/25 04:30:16;;;;;;;;;17.50;15.25;;;;;12.30;71.24;99846.44;5071104;28;45512;-67
2021/12/25 05:05:22;;;;;;;;;16.00;14.00;;;;;12.37;71.63;99863.44;5111422;27;44905;-65
2021/12/25 05:07:47;;;;;;;;;16.75;15.25;;;;;12.33;71.36;99855.38;5093206;27;45485;-64
2021/12/25 05:10:13;;;;;;;;;11.25;9.50;;;;;12.21;71.87;99830.31;5112407;27;45206;-66
2021/12/25 05:12:38;;;;;;;;;18.25;13.50;;;;;12.20;71.64;99832.09;5111611;27;45355;-66
2021/12/25 05:15:04;;;;;;;;;17.50;15.00;;;;;12.34;72.00;99864.31;5112226;27;45331;-64
2021/12/25 05:17:30;;;;;;;;;13.75;10.75;;;;;12.36;71.84;99867.91;5109327;27;46033;-66
2021/12/25 05:19:56;;;;;;;;;17.00;14.25;;;;;12.35;72.11;99876.81;5104107;27;45173;-66
2021/12/25 05:22:22;;;;;;;;;15.75;15.75;;;;;12.30;72.61;99866.06;5090600;28;45255;-65
2021/12/25 05:24:47;;;;;;;;;17.00;14.25;;;;;12.27;73.17;99863.38;5090731;28;45201;-64
2021/12/25 05:27:14;;;;;;;;;15.75;14.00;;;;;12.30;72.96;99866.06;5092784;27;45264;-68
2021/12/25 05:29:45;;;;;;;;;16.00;15.25;;;;;12.32;72.10;99871.44;5082271;28;45071;-68
2021/12/25 05:32:11;;;;;;;;;13.00;13.00;;;;;12.33;72.63;99875.94;5071454;28;46633;-68
2021/12/25 05:34:36;;;;;;;;;18.50;15.25;;;;;12.29;73.53;99866.97;5071320;28;45380;-67
2021/12/25 05:37:03;;;;;;;;;16.50;14.75;;;;;12.24;73.04;99858.03;5069855;28;45234;-68
2021/12/25 05:39:29;;;;;;;;;13.75;11.50;;;;;12.32;73.21;99872.34;5070392;28;45393;-69
2021/12/25 05:41:54;;;;;;;;;23.50;15.50;;;;;12.31;72.41;99875.03;5069403;28;46393;-67
2021/12/25 05:44:20;;;;;;;;;16.50;15.50;;;;;12.21;72.61;99860.69;5067775;28;45259;-66
2021/12/25 05:46:45;;;;;;;;;27.25;19.50;;;;;12.22;72.65;99854.44;5069174;28;45552;-66
2021/12/25 05:49:10;;;;;;;;;17.25;15.50;;;;;12.11;72.44;99845.44;5070768;28;45259;-69
2021/12/25 05:51:36;;;;;;;;;19.50;14.25;;;;;12.24;72.41;99866.06;5070579;28;45263;-68
2021/12/25 05:54:01;;;;;;;;;15.50;11.25;;;;;12.23;72.14;99876.78;5071146;28;45022;-68
2021/12/25 05:56:26;;;;;;;;;17.00;11.00;;;;;12.21;73.43;99875.84;5070564;28;44960;-69
2021/12/25 05:58:52;;;;;;;;;13.25;11.50;;;;;12.17;73.10;99875.81;5070147;28;45024;-68
2021/12/25 06:01:17;;;;;;;;;9.00;9.00;;;;;12.16;73.30;99874.06;5068236;28;47347;-68
2021/12/25 06:03:42;;;;;;;;;15.00;11.50;;;;;12.19;73.59;99874.94;5081977;27;45416;-66
2021/12/25 06:06:08;;;;;;;;;14.25;12.75;;;;;12.16;73.90;99881.19;5092671;28;45014;-69
2021/12/25 06:08:33;;;;;;;;;15.25;14.00;;;;;12.11;73.35;99858.81;5088764;28;45010;-68
2021/12/25 06:11:02;;;;;;;;;13.50;11.50;;;;;12.20;73.45;99877.63;5090952;28;45140;-67
2021/12/25 06:13:28;;;;;;;;;15.25;11.25;;;;;12.23;73.29;99874.97;5089108;28;44984;-67
2021/12/25 06:15:56;;;;;;;;;13.50;12.75;;;;;12.25;73.54;99878.56;5090673;28;45403;-67
2021/12/25 06:18:21;;;;;;;;;14.50;12.25;;;;;12.23;73.02;99858.91;5089514;28;45224;-69
2021/12/25 06:20:47;;;;;;;;;18.50;13.25;;;;;12.28;73.36;99869.66;5090292;28;45558;-66
2021/12/25 06:23:12;;;;;;;;;20.25;14.75;;;;;12.21;73.33;99858.00;5092001;27;44956;-67
2021/12/25 06:25:38;;;;;;;;;17.00;15.25;;;;;12.23;73.13;99858.91;5090143;28;45080;-67
2021/12/25 06:28:04;;;;;;;;;14.50;14.25;;;;;12.29;73.27;99866.97;5091606;28;45311;-68
2021/12/25 06:30:29;;;;;;;;;13.25;11.75;;;;;12.38;73.14;99878.63;5089505;28;46538;-67
2021/12/25 06:32:55;;;;;;;;;20.25;16.75;;;;;12.37;72.53;99876.81;5089144;28;45691;-68
2021/12/25 06:35:20;;;;;;;;;19.25;14.75;;;;;12.38;72.41;99887.56;5089240;28;45039;-66
2021/12/25 06:37:46;;;;;;;;;22.25;14.00;;;;;12.36;72.14;99894.69;5089761;28;45020;-68
2021/12/25 06:40:17;;;;;;;;;20.00;16.00;;;;;11.93;72.67;99814.13;5072902;28;45773;-66
2021/12/25 06:42:44;;;;;;;;;19.75;17.00;;;;;12.35;73.14;99892.88;5086315;28;45334;-67
2021/12/25 06:45:09;;;;;;;;;16.50;13.00;;;;;12.37;72.67;99895.56;5060069;28;45099;-64
2021/12/25 06:47:36;;;;;;;;;18.75;15.25;;;;;12.38;72.50;99894.69;5087749;28;45382;-70
2021/12/25 06:50:03;;;;;;;;;19.50;14.75;;;;;12.35;72.83;99892.88;5081582;28;45244;-68
2021/12/25 06:52:28;;;;;;;;;15.75;13.50;;;;;12.24;73.24;99867.81;5067921;28;44973;-70
2021/12/25 06:54:53;;;;;;;;;16.75;11.75;;;;;11.91;72.55;99819.47;5069426;27;45084;-68
2021/12/25 06:57:19;;;;;;;;;19.25;12.50;;;;;12.18;72.38;99868.69;5088915;27;45514;-68
2021/12/25 06:59:46;;;;;;;;;16.75;12.75;;;;;12.24;73.02;99870.50;5082060;28;46488;-68
2021/12/25 07:02:12;;;;;;;;;17.00;13.75;;;;;12.36;73.19;99889.34;5051494;28;45236;-67
2021/12/25 07:04:38;;;;;;;;;20.00;15.00;;;;;12.35;72.63;99895.56;5083502;28;45462;-67
2021/12/25 07:07:03;;;;;;;;;12.25;11.75;;;;;12.33;73.43;99886.63;5088673;28;45436;-67
2021/12/25 07:09:29;;;;;;;;;13.00;9.75;;;;;12.39;72.80;99907.19;5086873;28;47600;-65
2021/12/25 07:11:54;;;;;;;;;16.50;12.75;;;;;12.20;71.82;99869.59;5098918;27;45271;-65
2021/12/25 07:14:20;;;;;;;;;18.25;13.00;;;;;12.26;73.17;99887.47;5112893;27;45346;-65
2021/12/25 07:16:45;;;;;;;;;20.50;17.00;;;;;12.35;72.99;99896.44;5112041;27;45151;-60
2021/12/25 07:19:15;;;;;;;;;23.75;19.50;;;;;12.19;72.34;99874.94;5107541;27;45716;-70
2021/12/25 07:21:41;;;;;;;;;17.75;14.00;;;;;12.39;72.38;99900.06;5087915;27;44896;-66
2021/12/25 07:24:08;;;;;;;;;14.50;13.25;;;;;12.17;72.99;99866.91;5088609;27;45284;-61
2021/12/25 07:26:34;;;;;;;;;18.50;13.00;;;;;12.34;72.39;99897.34;5089712;28;45216;-63
2021/12/25 07:28:59;;;;;;;;;16.50;15.00;;;;;12.24;73.32;99874.09;5083787;28;45923;-60
2021/12/25 07:31:24;;;;;;;;;15.25;11.25;;;;;12.20;72.41;99879.44;5081457;28;45317;-60
2021/12/25 07:33:53;;;;;;;;;18.00;18.00;;;;;12.22;72.91;99872.28;5072599;27;45397;-72
2021/12/25 07:36:18;;;;;;;;;20.75;16.00;;;;;12.37;72.42;99908.97;5089430;28;44936;-62
2021/12/25 07:38:44;;;;;;;;;16.50;14.50;;;;;12.27;73.00;99881.25;5071547;28;45170;-69
2021/12/25 07:41:09;;;;;;;;;21.25;14.50;;;;;12.38;72.14;99900.06;5085243;28;44985;-69
2021/12/25 07:43:35;;;;;;;;;18.50;16.25;;;;;12.33;72.62;99892.88;5088838;28;45213;-63
2021/12/25 07:46:00;;;;;;;;;17.25;15.75;;;;;12.15;72.38;99861.53;5088747;28;44953;-71
2021/12/25 07:48:27;;;;;;;;;19.00;14.00;;;;;12.41;72.11;99909.00;5056305;28;46248;-60
2021/12/25 07:50:54;;;;;;;;;20.00;13.00;;;;;12.26;72.36;99880.34;5083474;28;45047;-69
2021/12/25 07:53:19;;;;;;;;;14.00;14.00;;;;;12.24;72.38;99879.47;5065566;28;45719;-60
2021/12/25 07:55:50;;;;;;;;;16.50;14.50;;;;;12.24;72.46;99876.78;5082801;27;44986;-73
2021/12/25 07:58:16;;;;;;;;;22.00;18.25;;;;;12.44;72.78;99910.78;5088193;28;46626;-68
2021/12/25 08:00:43;;;;;;;;;17.75;15.50;;;;;12.26;72.32;99880.34;5079770;28;45069;-66
2021/12/25 08:03:09;;;;;;;;;18.50;16.00;;;;;12.44;72.38;99901.00;5072627;28;45093;-65
2021/12/25 08:05:34;;;;;;;;;22.00;16.25;;;;;12.46;72.37;99911.72;5094406;27;45015;-62
2021/12/25 08:08:00;;;;;;;;;14.25;12.25;;;;;12.46;72.87;99915.28;5076559;28;45737;-63
2021/12/25 08:10:26;;;;;;;;;20.25;17.50;;;;;12.43;71.64;99895.63;5078196;28;45477;-65
2021/12/25 08:12:57;;;;;;;;;19.25;16.75;;;;;12.49;72.04;99911.72;5092254;28;45528;-60
2021/12/25 08:15:26;;;;;;;;;18.25;16.00;;;;;12.41;72.64;99894.72;5092068;28;45253;-72
2021/12/25 08:17:52;;;;;;;;;16.25;14.25;;;;;12.44;72.23;99916.16;5091598;28;45999;-62
2021/12/25 08:20:18;;;;;;;;;16.00;14.50;;;;;12.23;72.43;99874.09;5092240;28;45159;-66
2021/12/25 08:22:44;;;;;;;;;20.75;16.25;;;;;12.22;71.86;99880.31;5091972;28;45001;-67
2021/12/25 08:25:11;;;;;;;;;20.00;17.75;;;;;12.40;71.96;99920.59;5076784;28;45498;-62
2021/12/25 08:27:38;;;;;;;;;12.00;11.25;;;;;12.30;72.95;99903.56;5071707;28;45380;-63
2021/12/25 08:30:07;;;;;;;;;18.25;17.50;;;;;12.37;73.00;99917.91;5090221;28;45313;-65
2021/12/25 08:32:33;;;;;;;;;18.50;16.50;;;;;12.34;71.97;99907.16;5091553;28;45433;-63
2021/12/25 08:34:59;;;;;;;;;9.00;9.00;;;;;12.40;72.57;99920.59;5088277;28;45267;-63
2021/12/25 08:37:26;;;;;;;;;20.50;17.75;;;;;12.34;72.23;99910.75;5084915;27;45196;-65
2021/12/25 08:39:53;;;;;;;;;39.50;30.75;;;;;12.38;72.79;99924.16;5084276;28;45109;-61
2021/12/25 08:42:19;;;;;;;;;17.00;16.75;;;;;12.34;72.08;99910.75;5088323;27;44908;-70
2021/12/25 08:47:20;;;;;;;;;20.25;16.50;;;;;12.33;72.52;99932.16;5071325;28;45408;-63
2021/12/25 08:49:46;;;;;;;;;18.75;15.25;;;;;12.13;72.02;99899.91;5081768;28;45029;-65
2021/12/25 08:52:15;;;;;;;;;18.75;16.25;;;;;12.12;72.55;99900.78;5075015;28;45265;-69
2021/12/25 08:54:42;;;;;;;;;15.50;14.25;;;;;12.30;72.68;99933.03;5071488;28;45326;-62
2021/12/25 08:57:09;;;;;;;;;21.00;17.00;;;;;12.10;71.93;99898.09;5088312;28;46366;-61
2021/12/25 08:59:36;;;;;;;;;17.25;15.75;;;;;12.25;71.62;99926.75;5094916;27;44966;-60
2021/12/25 09:02:05;;;;;;;;;18.25;18.25;;;;;12.27;71.92;99934.81;5103602;27;45033;-62
2021/12/25 09:04:31;;;;;;;;;18.75;14.75;;;;;11.80;71.33;99861.28;5091356;28;45315;-66
2021/12/25 09:06:57;;;;;;;;;17.00;14.50;;;;;11.83;72.23;99860.41;5090846;28;46053;-61
2021/12/25 09:09:22;;;;;;;;;23.50;19.25;;;;;12.27;72.65;99942.84;5094857;27;45111;-68
2021/12/25 09:11:48;;;;;;;;;21.25;15.00;;;;;12.26;72.49;99933.00;5120315;27;45220;-66
2021/12/25 09:14:13;;;;;;;;;14.00;12.50;;;;;12.31;72.10;99940.19;5092952;27;45226;-63
2021/12/25 09:16:39;;;;;;;;;22.75;17.75;;;;;12.26;72.19;99917.84;5111166;27;45396;-63
2021/12/25 09:19:04;;;;;;;;;22.25;17.25;;;;;12.26;71.56;99916.94;5097565;27;45046;-70
2021/12/25 09:21:30;;;;;;;;;19.25;17.00;;;;;12.41;71.94;99937.59;5091599;27;45317;-64
2021/12/25 09:23:55;;;;;;;;;18.75;17.00;;;;;12.32;71.54;99928.59;5094562;27;45063;-65
2021/12/25 09:26:21;;;;;;;;;21.00;15.75;;;;;12.35;71.83;99936.63;5096183;27;45427;-67
2021/12/25 09:28:47;;;;;;;;;17.50;16.00;;;;;12.30;72.06;99919.63;5131069;27;45205;-69
2021/12/25 09:31:13;;;;;;;;;18.75;14.00;;;;;12.29;71.31;99909.84;5112525;27;45117;-67
2021/12/25 09:33:38;;;;;;;;;17.25;16.50;;;;;12.48;71.63;99948.31;5090345;28;45205;-63
2021/12/25 09:36:04;;;;;;;;;18.50;16.75;;;;;12.22;71.92;99908.00;5103418;27;45651;-63
2021/12/25 09:38:31;;;;;;;;;22.75;18.50;;;;;12.47;71.03;99948.31;5111315;27;45454;-67
2021/12/25 09:41:00;;;;;;;;;19.75;18.00;;;;;12.49;71.57;99949.25;5111034;27;44875;-59
2021/12/25 09:43:26;;;;;;;;;25.50;19.25;;;;;12.43;71.53;99938.47;5111706;27;45231;-67
2021/12/25 09:45:53;;;;;;;;;21.00;13.25;;;;;12.30;70.55;99919.63;5110443;27;46431;-62
2021/12/25 09:48:20;;;;;;;;;21.25;15.00;;;;;12.07;71.16;99871.31;5090037;27;45275;-68
2021/12/25 09:50:45;;;;;;;;;19.25;16.00;;;;;12.60;71.80;99968.94;5090717;27;45487;-63
2021/12/25 09:53:13;;;;;;;;;17.25;15.75;;;;;12.60;70.36;99955.53;5090174;27;44915;-62
2021/12/25 09:55:39;;;;;;;;;19.25;18.25;;;;;12.64;71.36;99967.19;5084040;27;45122;-66
2021/12/25 09:58:06;;;;;;;;;38.00;30.25;;;;;12.64;71.46;99956.47;5089613;28;45092;-66
2021/12/25 10:00:35;;;;;;;;;21.50;20.25;;;;;12.70;70.87;99961.84;5090250;28;45023;-66
2021/12/25 10:03:00;;;;;;;;;19.50;16.75;;;;;12.74;71.07;99963.66;5090280;28;45198;-62
2021/12/25 10:05:29;;;;;;;;;24.50;20.75;;;;;12.40;70.43;99907.19;5089105;28;45268;-62
2021/12/25 10:08:15;;;;;;;;;24.75;18.75;;;;;12.74;70.86;99966.34;5076488;28;45288;-62
2021/12/25 10:11:02;;;;;;;;;24.00;19.75;;;;;12.75;70.84;99961.84;5070369;28;45041;-60
2021/12/25 10:13:34;;;;;;;;;19.25;17.50;;;;;12.81;70.16;99960.09;5068958;28;45103;-62
2021/12/25 10:16:19;;;;;;;;;17.50;17.50;;;;;12.64;69.91;99933.22;5068812;28;47198;-72
2021/12/25 10:18:45;;;;;;;;;19.75;18.75;;;;;12.70;70.35;99927.00;5069595;28;44914;-66
2021/12/25 10:21:28;;;;;;;;;19.75;18.00;;;;;12.88;70.14;99947.63;5064393;28;45584;-67
2021/12/25 10:24:28;;;;;;;;;25.00;17.75;;;;;12.60;69.80;99880.50;5103722;27;45105;-62
2021/12/25 10:27:09;;;;;;;;;20.75;19.50;;;;;13.08;69.67;99948.59;5108736;27;46696;-65
2021/12/25 10:29:34;;;;;;;;;19.75;17.25;;;;;13.13;69.40;99945.03;5094934;27;45404;-62
2021/12/25 10:32:12;;;;;;;;;19.75;14.50;;;;;12.81;69.07;99879.69;5095108;27;45753;-69
2021/12/25 10:34:37;;;;;;;;;22.50;18.25;;;;;13.05;69.01;99921.78;5080429;27;45700;-62
2021/12/25 10:37:12;;;;;;;;;16.75;12.50;;;;;13.12;68.87;99924.47;5072703;28;46473;-69
2021/12/25 10:39:38;;;;;;;;;19.25;15.25;;;;;13.22;68.66;99943.25;5055847;28;45463;-63
2021/12/25 10:42:12;;;;;;;;;18.50;17.00;;;;;13.08;68.90;99924.47;5074150;28;45373;-64
2021/12/25 10:44:41;;;;;;;;;14.00;8.75;;;;;12.90;68.81;99900.25;5074333;28;45426;-72
2021/12/25 10:47:20;;;;;;;;;13.50;11.75;;;;;13.00;67.96;99930.69;5073908;28;45563;-70
2021/12/25 10:49:51;;;;;;;;;19.75;15.75;;;;;13.06;68.51;99947.69;5073951;28;45315;-70
2021/12/25 10:52:39;;;;;;;;;10.75;8.00;;;;;13.06;68.64;99945.00;5073719;28;45433;-66
2021/12/25 10:55:16;;;;;;;;;17.25;16.25;;;;;13.08;68.39;99936.97;5053134;28;45804;-67
2021/12/25 10:57:52;;;;;;;;;18.00;14.50;;;;;13.08;69.31;99932.50;5053735;28;46038;-64
2021/12/25 11:00:21;;;;;;;;;14.00;13.25;;;;;12.68;68.97;99854.63;5053592;28;45528;-65
2021/12/25 11:02:50;;;;;;;;;14.00;12.33;;;;;13.03;68.23;99915.53;5053728;28;45249;-59
2021/12/25 11:05:21;;;;;;;;;12.25;10.25;;;;;13.10;68.84;99921.78;5053694;28;45371;-61
2021/12/25 11:07:49;;;;;;;;;14.00;14.00;;;;;13.16;68.23;99921.78;5068838;28;46227;-68
2021/12/25 11:10:17;;;;;;;;;15.25;13.00;;;;;13.01;68.59;99897.63;5073677;28;45370;-66
2021/12/25 11:12:43;;;;;;;;;21.00;15.25;;;;;13.11;68.16;99918.19;5090761;27;45465;-67
2021/12/25 11:15:16;;;;;;;;;12.00;11.25;;;;;13.14;68.18;99911.97;5094738;27;45546;-77
2021/12/25 11:17:50;;;;;;;;;13.50;13.50;;;;;13.20;68.76;99903.91;5094105;27;46463;-75
2021/12/25 11:20:22;;;;;;;;;17.50;15.50;;;;;13.19;67.91;99902.13;5073839;27;44693;-66
2021/12/25 11:22:53;;;;;;;;;13.25;12.50;;;;;13.25;68.47;99910.22;5073612;28;45549;-77
2021/12/25 11:25:22;;;;;;;;;11.00;11.00;;;;;13.20;67.89;99896.78;5074123;28;45520;-73
2021/12/25 11:27:49;;;;;;;;;16.50;14.75;;;;;13.27;68.05;99903.03;5054671;28;46617;-66
2021/12/25 11:30:18;;;;;;;;;16.50;14.00;;;;;13.16;68.24;99886.91;5073480;27;45399;-67
2021/12/25 11:32:44;;;;;;;;;11.75;11.75;;;;;13.37;67.85;99904.88;5072025;28;45598;-67
2021/12/25 11:35:10;;;;;;;;;12.00;12.00;;;;;13.35;68.19;99895.94;5076007;28;45562;-61
2021/12/25 11:37:36;;;;;;;;;18.25;18.00;;;;;13.36;67.38;99892.34;5077039;28;46545;-64
2021/12/25 11:40:02;;;;;;;;;15.50;10.75;;;;;13.27;67.77;99868.19;5076851;28;45291;-62
2021/12/25 11:42:29;;;;;;;;;28.00;25.25;;;;;13.34;67.83;99874.47;5077087;28;45303;-61
2021/12/25 11:44:55;;;;;;;;;17.25;16.50;;;;;13.47;68.36;99884.31;5072056;28;45437;-60
2021/12/25 11:47:33;;;;;;;;;14.00;13.25;;;;;13.55;68.13;99885.22;5045755;28;48228;-65
2021/12/25 11:50:01;;;;;;;;;12.25;12.25;;;;;13.51;67.35;99870.00;5076729;28;45674;-74
2021/12/25 11:52:32;;;;;;;;;14.75;13.75;;;;;13.71;67.47;99877.16;5064391;28;45466;-66
2021/12/25 11:55:24;;;;;;;;;22.00;15.50;;;;;13.80;67.17;99878.03;5056289;28;45589;-70
2021/12/25 11:58:37;;;;;;;;;30.00;26.25;;;;;13.63;66.14;99848.53;5059950;28;45413;-64
2021/12/25 12:00:42;;;;;;;;;16.75;14.50;;;;;13.82;66.38;99876.25;5064787;28;45480;-66
2021/12/25 12:03:08;;;;;;;;;19.25;15.75;;;;;13.66;67.07;99855.72;5076546;28;45342;-66
2021/12/25 12:05:36;;;;;;;;;16.50;15.25;;;;;13.85;66.20;99885.22;5056453;28;45502;-65
2021/12/25 12:08:08;;;;;;;;;18.25;15.00;;;;;13.81;66.12;99877.16;5055600;28;47354;-63
2021/12/25 12:10:46;;;;;;;;;19.50;18.75;;;;;13.76;66.51;99887.00;5055954;28;45407;-61
2021/12/25 12:13:18;;;;;;;;;15.25;15.25;;;;;13.73;65.94;99876.28;5056084;28;45433;-65
2021/12/25 12:15:50;;;;;;;;;28.75;24.25;;;;;13.15;66.22;99774.28;5067483;28;45580;-65
2021/12/25 12:18:28;;;;;;;;;17.75;15.50;;;;;13.74;66.62;99880.75;5076065;28;45374;-62
2021/12/25 12:21:00;;;;;;;;;20.75;18.00;;;;;13.75;66.03;99873.59;5076080;27;45251;-63
2021/12/25 12:26:53;;;;;;;;;15.50;14.50;;;;;13.79;66.07;99870.00;5048068;28;45503;-65
2021/12/25 12:29:39;;;;;;;;;15.00;14.33;;;;;13.82;66.75;99878.03;5032749;28;46350;-59
2021/12/25 12:32:31;;;;;;;;;19.00;16.00;;;;;13.85;65.62;99874.47;5054422;28;45516;-60
2021/12/25 12:34:56;;;;;;;;;14.75;14.75;;;;;13.85;66.41;99877.16;5070357;28;45448;-65
2021/12/25 12:37:23;;;;;;;;;31.00;26.25;;;;;13.85;65.65;99872.69;5076357;28;45687;-62
2021/12/25 12:40:02;;;;;;;;;18.50;17.25;;;;;13.80;65.85;99872.69;5075967;28;46386;-60
2021/12/25 12:42:43;;;;;;;;;18.00;15.75;;;;;13.76;65.90;99864.63;5075505;28;45473;-61